Time;durP1;ratioP1;P1;durP2;ratioP2;P2;SDS_P1;SDS_P2;PMS_P1;PMS_P2;Temp;Humidity;BMP_temperature;BMP_pressure;BME280_temperature;BME280_humidity;BME280_pressure;Samples;Min_cycle;Max_cycle;Signal;HPM_P1;HPM_P2
2023/03/20 00:00:09;;;;;;;1.35;1.08;;;6.70;99.90;;;;;;2069357;28;20244;-65
2023/03/20 00:01:27;;;;;;;0.60;0.60;;;6.70;99.90;;;;;;2076227;28;20628;-66
2023/03/20 00:02:33;;;;;;;0.63;0.63;;;6.80;99.90;;;;;;2076027;28;20248;-65
2023/03/20 00:03:38;;;;;;;0.98;0.70;;;6.80;99.90;;;;;;2078023;28;20675;-65
2023/03/20 00:04:44;;;;;;;0.70;0.70;;;6.80;99.90;;;;;;2078311;28;20272;-65
2023/03/20 00:05:50;;;;;;;1.92;0.80;;;6.80;99.90;;;;;;2078419;28;20181;-65
2023/03/20 00:06:56;;;;;;;0.70;0.70;;;6.80;99.90;;;;;;2078346;28;20227;-65
2023/03/20 00:08:02;;;;;;;0.85;0.85;;;6.80;99.90;;;;;;2078364;28;20259;-65
2023/03/20 00:09:04;;;;;;;0.70;0.70;;;6.70;99.90;;;;;;2078187;28;20674;-66
2023/03/20 00:10:10;;;;;;;0.93;0.70;;;6.60;99.90;;;;;;2078272;28;20236;-65
2023/03/20 00:11:40;;;;;;;0.82;0.82;;;6.70;99.90;;;;;;2078146;28;20214;-65
2023/03/20 00:12:47;;;;;;;1.27;0.90;;;6.70;99.90;;;;;;2078520;28;20201;-65
2023/03/20 00:13:59;;;;;;;0.70;0.70;;;6.70;99.90;;;;;;2070399;28;20194;-65
2023/03/20 00:15:20;;;;;;;1.10;1.00;;;6.70;99.90;;;;;;2063866;28;20194;-65
2023/03/20 00:16:33;;;;;;;1.10;1.00;;;6.60;99.90;;;;;;2064774;28;20280;-65
2023/03/20 00:17:39;;;;;;;1.25;1.15;;;6.60;99.90;;;;;;2072067;28;20182;-65
2023/03/20 00:18:45;;;;;;;1.40;1.02;;;6.70;99.90;;;;;;2078207;28;20185;-64
2023/03/20 00:19:51;;;;;;;1.08;0.90;;;6.60;99.90;;;;;;2078287;28;20272;-64
2023/03/20 00:20:56;;;;;;;1.40;1.08;;;6.70;99.90;;;;;;2078125;28;20220;-64
2023/03/20 00:22:02;;;;;;;1.42;0.93;;;6.70;99.90;;;;;;2077921;28;20181;-64
2023/03/20 00:23:04;;;;;;;1.10;0.90;;;6.70;99.90;;;;;;2078064;28;20224;-64
2023/03/20 00:24:09;;;;;;;1.30;1.20;;;6.70;99.90;;;;;;2078168;28;20185;-65
2023/03/20 00:25:22;;;;;;;0.93;0.88;;;6.70;99.90;;;;;;2078153;28;20208;-65
2023/03/20 00:26:34;;;;;;;1.70;1.20;;;6.70;99.90;;;;;;2077611;28;20264;-65
2023/03/20 00:27:40;;;;;;;1.10;0.90;;;6.80;99.90;;;;;;2073188;28;20273;-65
2023/03/20 00:28:47;;;;;;;1.50;1.40;;;6.70;99.90;;;;;;2070952;28;20231;-65
2023/03/20 00:29:52;;;;;;;1.10;1.00;;;6.70;99.90;;;;;;2069615;28;20198;-65
2023/03/20 00:30:58;;;;;;;1.13;1.02;;;6.70;99.90;;;;;;2071127;28;20209;-65
2023/03/20 00:32:04;;;;;;;1.15;1.08;;;6.60;99.90;;;;;;2069304;28;20741;-65
2023/03/20 00:33:09;;;;;;;3.63;1.08;;;6.60;99.90;;;;;;2071002;28;20726;-65
2023/03/20 00:34:22;;;;;;;1.20;1.10;;;6.50;99.90;;;;;;2078146;28;20188;-65
2023/03/20 00:35:30;;;;;;;2.13;1.10;;;6.60;99.90;;;;;;2078057;28;20196;-66
2023/03/20 00:36:35;;;;;;;1.30;1.20;;;6.70;99.90;;;;;;2078056;28;20174;-65
2023/03/20 00:37:41;;;;;;;1.20;1.10;;;6.80;99.90;;;;;;2078160;28;20534;-65
2023/03/20 00:38:47;;;;;;;1.25;1.00;;;6.80;99.90;;;;;;2078063;28;20235;-65
2023/03/20 00:39:52;;;;;;;1.58;1.30;;;6.80;99.90;;;;;;2078006;28;20192;-65
2023/03/20 00:40:58;;;;;;;1.20;1.10;;;6.80;99.90;;;;;;2078201;28;20686;-65
2023/03/20 00:42:06;;;;;;;1.10;1.00;;;6.80;99.90;;;;;;2077700;28;20189;-65
2023/03/20 00:43:12;;;;;;;1.40;1.00;;;6.80;99.90;;;;;;2070202;28;20188;-65
2023/03/20 00:44:25;;;;;;;0.98;0.93;;;6.90;99.90;;;;;;2074777;28;20185;-65
2023/03/20 00:45:34;;;;;;;1.00;0.90;;;6.70;99.90;;;;;;2078278;28;20231;-65
2023/03/20 00:46:40;;;;;;;0.80;0.80;;;6.70;99.90;;;;;;2078641;28;20215;-65
2023/03/20 00:47:50;;;;;;;0.88;0.88;;;6.70;99.90;;;;;;2071618;28;20217;-66
2023/03/20 00:48:56;;;;;;;0.90;0.90;;;6.80;99.90;;;;;;2071391;28;20188;-65
2023/03/20 00:50:02;;;;;;;1.73;1.20;;;6.70;99.90;;;;;;2078077;28;20184;-65
2023/03/20 00:51:05;;;;;;;1.33;1.10;;;6.80;99.90;;;;;;2069283;28;20186;-65
2023/03/20 00:52:11;;;;;;;0.93;0.93;;;6.90;99.90;;;;;;2069860;28;20234;-66
2023/03/20 00:53:17;;;;;;;1.40;1.10;;;6.90;99.90;;;;;;2078258;28;20273;-65
2023/03/20 00:54:22;;;;;;;0.95;0.80;;;7.00;99.90;;;;;;2077967;28;20606;-66
2023/03/20 00:55:29;;;;;;;1.60;0.82;;;7.00;99.90;;;;;;2078124;28;20190;-65
2023/03/20 00:56:39;;;;;;;1.95;0.90;;;7.00;99.90;;;;;;2081178;28;20180;-65
2023/03/20 00:57:57;;;;;;;0.73;0.73;;;7.00;99.90;;;;;;2078031;28;20254;-65
2023/03/20 00:59:03;;;;;;;0.88;0.65;;;7.00;99.90;;;;;;2069104;28;20209;-65
2023/03/20 01:00:13;;;;;;;0.90;0.80;;;7.00;99.90;;;;;;2070009;28;20296;-65
2023/03/20 01:01:19;;;;;;;0.75;0.75;;;6.90;99.90;;;;;;2077680;28;20736;-64
2023/03/20 01:02:28;;;;;;;1.00;0.90;;;7.00;99.90;;;;;;2077813;28;20292;-66
2023/03/20 01:03:34;;;;;;;0.95;0.88;;;7.00;99.90;;;;;;2078007;28;20189;-66
2023/03/20 01:04:41;;;;;;;1.00;0.90;;;6.90;99.90;;;;;;2077934;28;20178;-66
2023/03/20 01:05:49;;;;;;;1.02;0.93;;;6.70;99.90;;;;;;2077323;28;20677;-65
2023/03/20 01:06:55;;;;;;;0.70;0.70;;;6.50;99.90;;;;;;2077377;28;20189;-66
2023/03/20 01:08:01;;;;;;;1.08;1.00;;;6.50;99.90;;;;;;2077985;28;20185;-65
2023/03/20 01:09:04;;;;;;;0.80;0.80;;;6.40;99.90;;;;;;2077704;28;20220;-65
2023/03/20 01:10:11;;;;;;;0.95;0.90;;;6.40;99.90;;;;;;2077918;28;20188;-65
2023/03/20 01:11:22;;;;;;;0.70;0.70;;;6.30;99.90;;;;;;2068828;28;20187;-64
2023/03/20 01:12:28;;;;;;;0.80;0.80;;;6.40;99.90;;;;;;2071229;28;20209;-65
2023/03/20 01:13:35;;;;;;;1.30;1.15;;;6.50;99.90;;;;;;2068997;28;20201;-65
2023/03/20 01:14:42;;;;;;;0.80;0.80;;;6.60;99.90;;;;;;2069277;28;20361;-65
2023/03/20 01:15:50;;;;;;;1.10;1.00;;;6.70;99.90;;;;;;2068839;28;20187;-65
2023/03/20 01:16:56;;;;;;;1.33;0.90;;;6.70;99.90;;;;;;2070846;28;20193;-66
2023/03/20 01:18:02;;;;;;;1.00;0.80;;;6.70;99.90;;;;;;2077727;28;20695;-65
2023/03/20 01:19:05;;;;;;;1.10;0.98;;;6.80;99.90;;;;;;2077701;28;20300;-66
2023/03/20 01:20:20;;;;;;;0.90;0.90;;;6.80;99.90;;;;;;2077595;28;20223;-66
2023/03/20 01:21:26;;;;;;;1.00;0.95;;;6.80;99.90;;;;;;2077511;28;20214;-63
2023/03/20 01:22:31;;;;;;;1.10;1.00;;;6.80;99.90;;;;;;2077637;28;20216;-65
2023/03/20 01:23:37;;;;;;;1.25;0.80;;;6.80;99.90;;;;;;2077511;28;20231;-66
2023/03/20 01:24:43;;;;;;;0.80;0.80;;;6.80;99.90;;;;;;2077800;28;20173;-65
2023/03/20 01:25:49;;;;;;;0.80;0.80;;;6.90;99.90;;;;;;2068955;28;20179;-66
2023/03/20 01:26:55;;;;;;;0.80;0.80;;;6.90;99.90;;;;;;2070372;28;20321;-67
2023/03/20 01:28:03;;;;;;;0.80;0.80;;;7.00;99.90;;;;;;2068793;28;20190;-65
2023/03/20 01:29:21;;;;;;;0.85;0.85;;;7.00;99.90;;;;;;2069293;28;20352;-66
2023/03/20 01:30:30;;;;;;;1.10;1.00;;;7.00;99.90;;;;;;2070306;28;20185;-65
2023/03/20 01:31:36;;;;;;;1.30;1.00;;;6.90;99.90;;;;;;2074725;28;20190;-66
2023/03/20 01:32:42;;;;;;;1.05;0.95;;;6.80;99.90;;;;;;2077331;28;20360;-65
2023/03/20 01:33:48;;;;;;;1.05;0.95;;;6.90;99.90;;;;;;2086298;28;20677;-65
2023/03/20 01:34:54;;;;;;;1.30;1.10;;;6.80;99.90;;;;;;2077757;28;20256;-65
2023/03/20 01:36:00;;;;;;;1.00;0.90;;;6.90;99.90;;;;;;2077647;28;20177;-64
2023/03/20 01:37:12;;;;;;;0.90;0.90;;;7.00;99.90;;;;;;2077601;28;20323;-65
2023/03/20 01:38:23;;;;;;;1.05;0.95;;;7.10;99.90;;;;;;2077521;28;20195;-65
2023/03/20 01:39:35;;;;;;;1.98;1.00;;;7.10;99.90;;;;;;2067153;28;20198;-65
2023/03/20 01:40:56;;;;;;;1.05;0.95;;;7.10;99.90;;;;;;2070943;28;20222;-65
2023/03/20 01:42:02;;;;;;;0.95;0.90;;;7.20;99.90;;;;;;2068675;28;20293;-66
2023/03/20 01:43:18;;;;;;;1.13;1.02;;;7.10;99.90;;;;;;2069818;28;20213;-66
2023/03/20 01:44:35;;;;;;;1.10;1.00;;;7.20;99.90;;;;;;2077219;28;20224;-66
2023/03/20 01:46:16;;;;;;;0.98;0.88;;;7.20;99.90;;;;;;2077812;28;20246;-66
2023/03/20 01:47:24;;;;;;;1.23;0.90;;;7.20;99.90;;;;;;2079612;28;20182;-66
2023/03/20 01:48:49;;;;;;;0.93;0.82;;;7.20;99.90;;;;;;2077212;28;20185;-66
2023/03/20 01:50:21;;;;;;;1.00;0.90;;;7.20;99.90;;;;;;2079554;28;20181;-65
2023/03/20 01:51:36;;;;;;;0.80;0.80;;;7.10;99.90;;;;;;2078346;28;20200;-66
2023/03/20 01:52:42;;;;;;;1.17;0.90;;;7.20;99.90;;;;;;2068667;28;20255;-66
2023/03/20 01:54:01;;;;;;;1.08;0.90;;;7.10;99.90;;;;;;2071042;28;20211;-66
2023/03/20 01:55:05;;;;;;;0.70;0.70;;;7.20;99.90;;;;;;2068567;28;20224;-65
2023/03/20 01:56:14;;;;;;;1.27;1.17;;;7.10;99.90;;;;;;2070334;28;20613;-65
2023/03/20 01:57:23;;;;;;;0.85;0.85;;;7.00;99.90;;;;;;2077461;28;20610;-65
2023/03/20 01:58:36;;;;;;;0.80;0.80;;;7.10;99.90;;;;;;2077694;28;20184;-66
2023/03/20 01:59:50;;;;;;;0.70;0.70;;;7.20;99.90;;;;;;2077323;28;20636;-64
2023/03/20 02:00:55;;;;;;;1.10;1.00;;;7.20;99.90;;;;;;2077469;28;20270;-65
2023/03/20 02:02:01;;;;;;;0.77;0.77;;;7.30;99.90;;;;;;2076666;28;20177;-65
2023/03/20 02:03:07;;;;;;;0.93;0.70;;;7.30;99.90;;;;;;2080531;28;20181;-65
2023/03/20 02:04:12;;;;;;;1.08;0.80;;;7.20;99.90;;;;;;2077468;28;20188;-65
2023/03/20 02:05:21;;;;;;;1.60;0.80;;;7.20;99.90;;;;;;2068560;28;20717;-66
2023/03/20 02:06:26;;;;;;;1.13;0.93;;;7.10;99.90;;;;;;2070407;28;20663;-65
2023/03/20 02:07:34;;;;;;;0.80;0.70;;;7.10;99.90;;;;;;2076647;28;20195;-65
2023/03/20 02:08:49;;;;;;;0.80;0.70;;;7.00;99.90;;;;;;2068809;28;20214;-65
2023/03/20 02:09:55;;;;;;;0.70;0.70;;;7.00;99.90;;;;;;2071324;28;20213;-65
2023/03/20 02:11:03;;;;;;;0.98;0.98;;;7.10;99.90;;;;;;2077385;28;20193;-65
2023/03/20 02:12:05;;;;;;;1.55;0.80;;;7.10;99.90;;;;;;2068209;28;20657;-65
2023/03/20 02:13:10;;;;;;;0.77;0.70;;;6.90;99.90;;;;;;2069354;28;20198;-65
2023/03/20 02:14:16;;;;;;;0.98;0.80;;;6.90;99.90;;;;;;2076540;28;20200;-66
2023/03/20 02:15:26;;;;;;;0.90;0.70;;;6.90;99.90;;;;;;2079636;28;20224;-65
2023/03/20 02:16:32;;;;;;;1.70;1.00;;;7.00;99.90;;;;;;2080599;28;20193;-66
2023/03/20 02:17:38;;;;;;;0.90;0.80;;;6.90;99.90;;;;;;2077369;28;20680;-65
2023/03/20 02:18:48;;;;;;;0.77;0.77;;;6.90;99.90;;;;;;2077300;28;20591;-65
2023/03/20 02:20:13;;;;;;;0.80;0.80;;;6.90;99.90;;;;;;2068449;28;20192;-65
2023/03/20 02:21:52;;;;;;;0.88;0.80;;;7.00;99.90;;;;;;2072377;28;20563;-64
2023/03/20 02:23:13;;;;;;;1.00;0.90;;;6.90;99.90;;;;;;2077690;28;20189;-66
2023/03/20 02:24:31;;;;;;;0.88;0.82;;;7.00;99.90;;;;;;2077348;28;20260;-65
2023/03/20 02:26:08;;;;;;;0.85;0.85;;;7.10;99.90;;;;;;2079470;28;20230;-65
2023/03/20 02:27:41;;;;;;;1.00;0.80;;;7.00;99.90;;;;;;2070432;28;20189;-65
2023/03/20 02:29:02;;;;;;;0.93;0.80;;;7.20;99.90;;;;;;2073486;28;20206;-66
2023/03/20 02:30:37;;;;;;;0.90;0.68;;;7.20;99.90;;;;;;2077034;28;20192;-65
2023/03/20 02:32:19;;;;;;;0.60;0.60;;;7.30;99.90;;;;;;2077669;28;20170;-65
2023/03/20 02:33:55;;;;;;;0.95;0.80;;;7.40;99.90;;;;;;2073136;28;20695;-65
2023/03/20 02:35:39;;;;;;;0.95;0.93;;;7.10;99.90;;;;;;2079619;28;20192;-65
2023/03/20 02:37:39;;;;;;;1.60;0.80;;;7.30;99.90;;;;;;2077257;28;20216;-65
2023/03/20 02:39:09;;;;;;;2.35;0.80;;;7.40;99.90;;;;;;2050459;28;20269;-65
2023/03/20 02:40:37;;;;;;;0.70;0.60;;;7.40;99.90;;;;;;2054648;28;20273;-65
2023/03/20 02:42:11;;;;;;;0.90;0.80;;;7.30;99.90;;;;;;2072794;28;20715;-65
2023/03/20 02:43:42;;;;;;;1.10;1.00;;;7.20;99.90;;;;;;2076418;28;20181;-65
2023/03/20 02:45:07;;;;;;;0.73;0.70;;;7.20;99.90;;;;;;2068329;28;20291;-65
2023/03/20 02:46:23;;;;;;;0.70;0.70;;;7.20;99.90;;;;;;2071812;28;20184;-65
2023/03/20 02:48:10;;;;;;;1.15;0.80;;;7.20;99.90;;;;;;2076585;28;20687;-64
2023/03/20 02:49:51;;;;;;;1.10;0.98;;;7.40;99.90;;;;;;2080878;28;20691;-65
2023/03/20 02:51:14;;;;;;;0.80;0.80;;;7.30;99.90;;;;;;2048840;28;20246;-65
2023/03/20 02:52:43;;;;;;;1.38;0.90;;;7.30;99.90;;;;;;2063975;28;20212;-65
2023/03/20 02:53:58;;;;;;;0.80;0.80;;;7.30;99.90;;;;;;2073039;28;20750;-65
2023/03/20 02:55:30;;;;;;;1.10;0.80;;;7.20;99.90;;;;;;2068328;28;20209;-65
2023/03/20 02:57:17;;;;;;;0.93;0.90;;;7.10;99.90;;;;;;2073200;28;20185;-65
2023/03/20 02:58:30;;;;;;;1.13;0.80;;;7.20;99.90;;;;;;2053249;28;20195;-64
2023/03/20 02:59:50;;;;;;;0.93;0.85;;;7.20;99.90;;;;;;2072301;28;20206;-64
2023/03/20 03:01:52;;;;;;;1.50;1.08;;;7.20;99.90;;;;;;2070349;28;20661;-64
2023/03/20 03:03:29;;;;;;;1.05;0.95;;;7.20;99.90;;;;;;2046110;29;20227;-64
2023/03/20 03:04:41;;;;;;;1.13;1.02;;;7.20;99.90;;;;;;2042622;29;20692;-65
2023/03/20 03:05:53;;;;;;;1.17;1.08;;;7.30;99.90;;;;;;2061863;28;20278;-65
2023/03/20 03:07:02;;;;;;;1.55;1.10;;;7.30;99.90;;;;;;2062435;28;20277;-66
2023/03/20 03:08:09;;;;;;;2.38;0.98;;;7.30;99.90;;;;;;2069614;28;20654;-66
2023/03/20 03:09:24;;;;;;;0.82;0.82;;;7.30;99.90;;;;;;2069299;28;20765;-65
2023/03/20 03:10:37;;;;;;;1.10;1.00;;;7.40;99.90;;;;;;2066843;28;20190;-66
2023/03/20 03:11:49;;;;;;;2.00;1.00;;;7.40;99.90;;;;;;2070241;28;20180;-65
2023/03/20 03:12:57;;;;;;;1.75;1.02;;;7.40;99.90;;;;;;2076236;28;20874;-65
2023/03/20 03:14:05;;;;;;;0.90;0.90;;;7.40;99.90;;;;;;2068171;28;20272;-65
2023/03/20 03:15:18;;;;;;;1.15;1.08;;;7.40;99.90;;;;;;2069481;28;20280;-65
2023/03/20 03:16:32;;;;;;;1.25;1.00;;;7.40;99.90;;;;;;2068028;28;20246;-65
2023/03/20 03:17:42;;;;;;;1.13;0.90;;;7.40;99.90;;;;;;2062578;28;20174;-65
2023/03/20 03:19:09;;;;;;;1.10;1.00;;;7.30;99.90;;;;;;2061682;28;20566;-65
2023/03/20 03:20:24;;;;;;;1.10;1.00;;;7.30;99.90;;;;;;2064259;28;20203;-65
2023/03/20 03:21:33;;;;;;;1.38;0.90;;;7.20;99.90;;;;;;2070546;28;20257;-65
2023/03/20 03:22:39;;;;;;;1.10;0.90;;;7.20;99.90;;;;;;2068989;28;20343;-65
2023/03/20 03:23:48;;;;;;;1.10;1.00;;;7.20;99.90;;;;;;2072357;28;20250;-66
2023/03/20 03:24:54;;;;;;;0.82;0.80;;;7.20;99.90;;;;;;2075846;28;20188;-65
2023/03/20 03:26:03;;;;;;;1.13;0.90;;;7.20;99.90;;;;;;2072946;28;20193;-65
2023/03/20 03:27:36;;;;;;;1.52;0.93;;;7.20;99.90;;;;;;2076426;28;20185;-65
2023/03/20 03:28:46;;;;;;;1.00;0.90;;;7.10;99.90;;;;;;2066043;28;20585;-65
2023/03/20 03:30:04;;;;;;;1.00;0.90;;;7.10;99.90;;;;;;2069685;28;20570;-65
2023/03/20 03:31:10;;;;;;;0.82;0.80;;;7.20;99.90;;;;;;2078165;28;20224;-65
2023/03/20 03:32:29;;;;;;;1.02;0.93;;;7.20;99.90;;;;;;2068082;28;20213;-65
2023/03/20 03:33:39;;;;;;;1.30;0.90;;;7.30;99.90;;;;;;2071418;28;20338;-65
2023/03/20 03:34:45;;;;;;;1.10;1.00;;;7.20;99.90;;;;;;2069432;28;20639;-65
2023/03/20 03:36:25;;;;;;;1.00;0.90;;;7.20;99.90;;;;;;2072287;28;20207;-65
2023/03/20 03:38:17;;;;;;;1.25;0.80;;;7.20;99.90;;;;;;2075535;28;20414;-65
2023/03/20 03:39:51;;;;;;;1.65;0.80;;;7.10;99.90;;;;;;2069324;28;20284;-64
2023/03/20 03:41:06;;;;;;;1.63;0.98;;;7.10;99.90;;;;;;2073888;28;20297;-66
2023/03/20 03:42:30;;;;;;;1.33;0.93;;;7.10;99.90;;;;;;2084741;28;20192;-65
2023/03/20 03:44:04;;;;;;;1.10;0.90;;;7.20;99.90;;;;;;2072612;28;20170;-65
2023/03/20 03:45:17;;;;;;;0.77;0.77;;;7.20;99.90;;;;;;2078141;28;20186;-65
2023/03/20 03:46:38;;;;;;;0.82;0.82;;;7.30;99.90;;;;;;2080918;28;20176;-66
2023/03/20 03:47:51;;;;;;;0.85;0.85;;;7.30;99.90;;;;;;2070324;28;20166;-65
2023/03/20 03:48:58;;;;;;;0.85;0.85;;;7.40;99.90;;;;;;2075225;28;20563;-65
2023/03/20 03:50:38;;;;;;;1.02;0.90;;;7.40;99.90;;;;;;2081289;28;20180;-65
2023/03/20 03:51:48;;;;;;;1.08;0.90;;;7.50;99.90;;;;;;2077521;28;20173;-66
2023/03/20 03:53:00;;;;;;;1.58;0.73;;;7.40;99.90;;;;;;2071028;28;20244;-66
2023/03/20 03:54:10;;;;;;;2.53;0.95;;;7.40;99.90;;;;;;2077419;28;20185;-66
2023/03/20 03:55:24;;;;;;;1.08;0.98;;;7.40;99.90;;;;;;2079939;28;20196;-65
2023/03/20 03:56:34;;;;;;;0.73;0.73;;;7.50;99.90;;;;;;2064573;28;20182;-66
2023/03/20 03:57:46;;;;;;;1.05;0.80;;;7.50;99.90;;;;;;2068587;28;20182;-65
2023/03/20 03:58:58;;;;;;;1.02;0.90;;;7.50;99.90;;;;;;2072533;28;20177;-65
2023/03/20 04:00:08;;;;;;;2.55;0.90;;;7.40;99.90;;;;;;2071171;28;20182;-65
2023/03/20 04:01:11;;;;;;;1.98;0.90;;;7.40;99.90;;;;;;2072917;28;20650;-65
2023/03/20 04:02:20;;;;;;;1.10;1.00;;;7.40;99.90;;;;;;2071239;28;20238;-65
2023/03/20 04:03:34;;;;;;;1.10;1.00;;;7.30;99.90;;;;;;2072917;28;20828;-65
2023/03/20 04:04:45;;;;;;;1.38;1.00;;;7.20;99.90;;;;;;2082376;28;20646;-65
2023/03/20 04:05:54;;;;;;;2.83;1.00;;;7.20;99.90;;;;;;2071095;28;20192;-65
2023/03/20 04:07:00;;;;;;;1.08;0.95;;;7.10;99.90;;;;;;2064421;28;20220;-66
2023/03/20 04:08:05;;;;;;;1.30;1.05;;;7.20;99.90;;;;;;2072308;28;20209;-65
2023/03/20 04:09:09;;;;;;;1.20;1.10;;;7.20;99.90;;;;;;2077023;28;20186;-65
2023/03/20 04:10:15;;;;;;;1.30;1.00;;;7.30;99.90;;;;;;2081087;28;20252;-64
2023/03/20 04:11:24;;;;;;;1.42;1.00;;;7.80;99.90;;;;;;2081849;28;20188;-66
2023/03/20 04:12:42;;;;;;;0.95;0.95;;;7.40;99.90;;;;;;2077878;28;20220;-65
2023/03/20 04:13:50;;;;;;;1.20;1.10;;;7.50;99.90;;;;;;2069891;28;20186;-64
2023/03/20 04:14:56;;;;;;;1.65;1.42;;;7.50;99.90;;;;;;2072679;28;20193;-65
2023/03/20 04:16:01;;;;;;;1.20;1.00;;;7.60;99.90;;;;;;2078582;28;20225;-65
2023/03/20 04:17:04;;;;;;;1.70;1.25;;;7.50;99.90;;;;;;2079119;28;20575;-65
2023/03/20 04:18:16;;;;;;;1.60;1.45;;;7.30;99.90;;;;;;2079212;28;20183;-65
2023/03/20 04:19:22;;;;;;;1.20;1.10;;;7.40;99.90;;;;;;2079464;28;20228;-65
2023/03/20 04:20:28;;;;;;;1.30;1.20;;;7.40;99.90;;;;;;2079714;28;20200;-66
2023/03/20 04:21:34;;;;;;;2.17;1.40;;;7.40;99.90;;;;;;2079359;28;20522;-66
2023/03/20 04:22:39;;;;;;;1.23;1.05;;;7.50;99.90;;;;;;2078465;28;20205;-66
2023/03/20 04:23:45;;;;;;;1.10;1.00;;;7.50;99.90;;;;;;2077000;28;20186;-66
2023/03/20 04:24:51;;;;;;;1.35;1.00;;;7.50;99.90;;;;;;2077037;28;20185;-66
2023/03/20 04:25:57;;;;;;;1.70;1.60;;;7.50;99.90;;;;;;2077819;28;20288;-66
2023/03/20 04:27:03;;;;;;;1.27;1.17;;;7.50;99.90;;;;;;2078539;28;20197;-66
2023/03/20 04:28:04;;;;;;;1.38;1.02;;;7.50;99.90;;;;;;2079157;28;20178;-65
2023/03/20 04:29:09;;;;;;;1.30;1.20;;;7.50;99.90;;;;;;2080398;28;20216;-66
2023/03/20 04:30:16;;;;;;;1.67;1.20;;;7.50;99.90;;;;;;2077297;28;20200;-65
2023/03/20 04:31:22;;;;;;;2.08;1.45;;;7.40;99.90;;;;;;2068349;28;20191;-65
2023/03/20 04:32:27;;;;;;;1.30;1.20;;;7.50;99.90;;;;;;2072614;28;20203;-65
2023/03/20 04:33:33;;;;;;;1.38;1.27;;;7.50;99.90;;;;;;2079594;28;20191;-66
2023/03/20 04:34:39;;;;;;;1.20;1.10;;;7.50;99.90;;;;;;2079060;28;20209;-65
2023/03/20 04:35:45;;;;;;;2.58;1.10;;;7.50;99.90;;;;;;2078700;28;20181;-65
2023/03/20 04:36:51;;;;;;;2.58;1.00;;;7.40;99.90;;;;;;2077622;28;20193;-66
2023/03/20 04:37:57;;;;;;;1.25;1.15;;;7.40;99.90;;;;;;2070196;28;20189;-66
2023/03/20 04:39:02;;;;;;;1.77;1.13;;;7.40;99.90;;;;;;2071236;28;20181;-66
2023/03/20 04:40:05;;;;;;;1.60;1.00;;;7.40;99.90;;;;;;2079402;28;20202;-66
2023/03/20 04:41:09;;;;;;;1.42;1.33;;;7.40;99.90;;;;;;2069852;28;20583;-65
2023/03/20 04:42:16;;;;;;;1.30;1.20;;;7.30;99.90;;;;;;2069507;28;20294;-66
2023/03/20 04:43:21;;;;;;;1.90;1.20;;;7.40;99.90;;;;;;2077011;28;20188;-64
2023/03/20 04:44:27;;;;;;;1.60;1.30;;;7.30;99.90;;;;;;2076372;28;20173;-66
2023/03/20 04:45:33;;;;;;;2.83;1.90;;;7.40;99.90;;;;;;2076413;28;20830;-65
2023/03/20 04:46:38;;;;;;;2.83;2.00;;;7.30;99.90;;;;;;2079498;28;20191;-65
2023/03/20 04:47:44;;;;;;;2.42;2.08;;;7.30;99.90;;;;;;2080026;28;20309;-65
2023/03/20 04:48:50;;;;;;;2.65;2.17;;;7.30;99.90;;;;;;2070135;28;20847;-65
2023/03/20 04:49:56;;;;;;;1.98;1.80;;;7.30;99.90;;;;;;2073501;28;20300;-65
2023/03/20 04:51:01;;;;;;;1.60;1.30;;;7.30;99.90;;;;;;2077019;28;20185;-65
2023/03/20 04:52:04;;;;;;;2.22;1.30;;;7.40;99.90;;;;;;2076973;28;20260;-66
2023/03/20 04:53:09;;;;;;;1.55;1.45;;;7.40;99.90;;;;;;2077876;28;20170;-65
2023/03/20 04:54:15;;;;;;;1.70;1.40;;;7.50;99.90;;;;;;2077869;28;20266;-65
2023/03/20 04:55:21;;;;;;;1.67;1.58;;;7.50;99.90;;;;;;2077615;28;20192;-63
2023/03/20 04:56:27;;;;;;;1.52;1.42;;;7.50;99.90;;;;;;2077806;28;20184;-65
2023/03/20 04:57:33;;;;;;;1.60;1.50;;;7.50;99.90;;;;;;2077592;28;20184;-65
2023/03/20 04:58:39;;;;;;;2.08;1.38;;;7.50;99.90;;;;;;2077829;28;20220;-65
2023/03/20 04:59:45;;;;;;;1.48;1.38;;;7.50;99.90;;;;;;2077523;28;20933;-65
2023/03/20 05:00:51;;;;;;;1.83;1.40;;;7.50;99.90;;;;;;2077864;28;20220;-65
2023/03/20 05:01:57;;;;;;;1.55;1.33;;;7.50;99.90;;;;;;2077330;28;20840;-65
2023/03/20 05:03:02;;;;;;;1.65;1.38;;;7.40;99.90;;;;;;2077965;28;20193;-66
2023/03/20 05:04:05;;;;;;;1.60;1.50;;;7.40;99.90;;;;;;2078153;28;20186;-65
2023/03/20 05:05:09;;;;;;;1.73;1.63;;;7.50;99.90;;;;;;2077683;28;20178;-66
2023/03/20 05:06:15;;;;;;;2.50;1.40;;;7.50;99.90;;;;;;2077666;28;20200;-65
2023/03/20 05:07:21;;;;;;;1.70;1.42;;;7.50;99.90;;;;;;2077821;28;20277;-65
2023/03/20 05:08:27;;;;;;;2.15;1.38;;;7.40;99.90;;;;;;2077659;28;20240;-65
2023/03/20 05:09:32;;;;;;;1.40;1.30;;;7.40;99.90;;;;;;2077647;28;20598;-65
2023/03/20 05:10:38;;;;;;;1.85;1.20;;;7.30;99.90;;;;;;2078460;28;20186;-65
2023/03/20 05:11:44;;;;;;;1.60;1.50;;;7.20;99.90;;;;;;2077967;28;20197;-65
2023/03/20 05:12:50;;;;;;;2.45;1.70;;;7.30;99.90;;;;;;2078083;28;20254;-64
2023/03/20 05:13:56;;;;;;;1.58;1.45;;;7.30;99.90;;;;;;2077528;28;20262;-65
2023/03/20 05:15:01;;;;;;;2.03;1.75;;;7.30;99.90;;;;;;2077609;28;20185;-66
2023/03/20 05:16:05;;;;;;;3.15;2.35;;;7.30;99.90;;;;;;2077507;28;20201;-65
2023/03/20 05:17:09;;;;;;;2.38;1.55;;;7.30;99.90;;;;;;2078202;28;20224;-66
2023/03/20 05:18:15;;;;;;;5.30;1.95;;;7.30;99.90;;;;;;2077992;28;20572;-65
2023/03/20 05:19:21;;;;;;;2.78;1.90;;;7.40;99.90;;;;;;2077895;28;20212;-65
2023/03/20 05:20:27;;;;;;;1.77;1.60;;;7.40;99.90;;;;;;2070331;28;20266;-65
2023/03/20 05:21:32;;;;;;;1.65;1.33;;;7.40;99.90;;;;;;2072940;28;20183;-65
2023/03/20 05:22:38;;;;;;;2.10;1.40;;;7.40;99.90;;;;;;2077850;28;20240;-65
2023/03/20 05:23:44;;;;;;;1.83;1.40;;;7.50;99.90;;;;;;2078124;28;20638;-65
2023/03/20 05:24:50;;;;;;;1.98;1.40;;;7.40;99.90;;;;;;2077854;28;20606;-65
2023/03/20 05:25:55;;;;;;;1.98;1.77;;;7.40;99.90;;;;;;2077489;28;20217;-65
2023/03/20 05:27:01;;;;;;;2.95;1.33;;;7.30;99.90;;;;;;2077276;28;20181;-66
2023/03/20 05:28:05;;;;;;;1.75;1.50;;;7.30;99.90;;;;;;2077403;28;20177;-65
2023/03/20 05:29:09;;;;;;;2.00;1.65;;;7.30;99.90;;;;;;2077859;28;20186;-66
2023/03/20 05:30:16;;;;;;;2.65;1.70;;;7.40;99.90;;;;;;2069334;28;20269;-66
2023/03/20 05:31:21;;;;;;;1.60;1.50;;;7.40;99.90;;;;;;2070536;28;20694;-65
2023/03/20 05:32:27;;;;;;;1.40;1.30;;;7.50;99.90;;;;;;2077297;28;20205;-65
2023/03/20 05:33:33;;;;;;;2.70;1.50;;;7.40;99.90;;;;;;2077427;28;20173;-65
2023/03/20 05:34:39;;;;;;;2.35;1.60;;;7.40;99.90;;;;;;2077438;28;20277;-63
2023/03/20 05:35:45;;;;;;;2.00;1.63;;;7.40;99.90;;;;;;2077532;28;20177;-65
2023/03/20 05:36:50;;;;;;;2.45;1.83;;;7.40;99.90;;;;;;2077384;28;20238;-66
2023/03/20 05:37:56;;;;;;;2.47;1.73;;;7.40;99.90;;;;;;2077622;28;20197;-65
2023/03/20 05:39:02;;;;;;;3.05;1.88;;;7.40;99.90;;;;;;2078026;28;20216;-66
2023/03/20 05:40:07;;;;;;;2.22;2.03;;;7.40;99.90;;;;;;2076689;28;20642;-66
2023/03/20 05:41:10;;;;;;;2.10;1.90;;;7.40;99.90;;;;;;2081367;28;20537;-65
2023/03/20 05:42:15;;;;;;;3.15;1.83;;;7.40;99.90;;;;;;2078239;28;20235;-65
2023/03/20 05:43:21;;;;;;;1.80;1.50;;;7.40;99.90;;;;;;2081730;28;20679;-65
2023/03/20 05:44:27;;;;;;;1.95;1.38;;;7.40;99.90;;;;;;2069482;28;20169;-65
2023/03/20 05:45:32;;;;;;;1.50;1.40;;;7.40;99.90;;;;;;2071160;28;20662;-66
2023/03/20 05:46:38;;;;;;;2.65;1.80;;;7.40;99.90;;;;;;2078011;28;20269;-65
2023/03/20 05:47:44;;;;;;;2.15;1.70;;;7.30;99.90;;;;;;2077593;28;20170;-66
2023/03/20 05:48:50;;;;;;;3.88;1.90;;;7.10;99.90;;;;;;2077405;28;20187;-66
2023/03/20 05:49:56;;;;;;;1.60;1.50;;;7.10;99.90;;;;;;2077125;28;20736;-65
2023/03/20 05:51:02;;;;;;;1.60;1.42;;;7.10;99.90;;;;;;2077813;28;20277;-65
2023/03/20 05:52:04;;;;;;;2.10;1.50;;;7.20;99.90;;;;;;2077370;28;20179;-65
2023/03/20 05:53:09;;;;;;;1.58;1.38;;;7.30;99.90;;;;;;2077863;28;20654;-65
2023/03/20 05:54:15;;;;;;;1.60;1.40;;;7.40;99.90;;;;;;2077486;28;20180;-65
2023/03/20 05:55:21;;;;;;;1.80;1.33;;;7.40;99.90;;;;;;2077283;28;20285;-66
2023/03/20 05:56:27;;;;;;;1.30;1.20;;;7.50;99.90;;;;;;2077160;28;20221;-65
2023/03/20 05:57:32;;;;;;;1.60;1.45;;;7.50;99.90;;;;;;2077591;28;20184;-66
2023/03/20 05:58:38;;;;;;;1.50;1.30;;;7.60;99.90;;;;;;2077888;28;20182;-65
2023/03/20 05:59:44;;;;;;;1.30;1.20;;;7.60;99.90;;;;;;2077641;28;20197;-64
2023/03/20 06:00:50;;;;;;;2.35;1.60;;;7.60;99.90;;;;;;2076692;28;20187;-65
2023/03/20 06:01:55;;;;;;;1.90;1.70;;;7.50;99.90;;;;;;2076726;28;20211;-65
2023/03/20 06:03:01;;;;;;;1.60;1.15;;;7.40;99.90;;;;;;2077284;28;20750;-65
2023/03/20 06:04:05;;;;;;;1.55;1.33;;;7.40;99.90;;;;;;2077373;28;20191;-66
2023/03/20 06:05:10;;;;;;;1.48;1.38;;;7.30;99.90;;;;;;2078122;28;20604;-65
2023/03/20 06:06:16;;;;;;;2.17;1.60;;;7.30;99.90;;;;;;2077841;28;20197;-65
2023/03/20 06:07:22;;;;;;;1.40;1.30;;;7.30;99.90;;;;;;2077269;28;20217;-65
2023/03/20 06:08:29;;;;;;;1.45;1.30;;;7.30;99.90;;;;;;2077131;28;20638;-65
2023/03/20 06:09:35;;;;;;;1.35;1.20;;;7.20;99.90;;;;;;2077366;28;20173;-65
2023/03/20 06:10:41;;;;;;;4.78;3.05;;;7.10;99.90;;;;;;2077017;28;20658;-65
2023/03/20 06:11:47;;;;;;;5.43;3.80;;;7.00;99.90;;;;;;2076979;28;20189;-66
2023/03/20 06:12:53;;;;;;;6.35;4.20;;;7.10;99.90;;;;;;2068268;28;20210;-65